.
WxDataArchive / Data Records for 2007-12-14
2007-12-13 December 2007 2007-12-15

Data Records for Friday, 14 December 2007

Time	Temp	Chill	HIndex	Humid	Dewpt	 Wind 	HiWind	WindDir	Rain 	Barom 
-----	----	-----	------	-----	-----	------	------	-------	-----	----- 
00:00	31.8	31.8	31.8	78	25.7	3	7	270	0.00	30.103 
00:05	31.8	31.8	31.8	79	26.0	2	5	270	0.00	30.104 
00:10	31.8	31.8	31.8	78	25.7	3	11	270	0.00	30.105 
00:15	31.8	31.8	31.8	78	25.7	3	6	248	0.00	30.105 
00:20	31.8	27.8	31.8	78	25.7	4	10	270	0.00	30.107 
00:25	31.8	27.8	31.8	78	25.7	4	12	270	0.00	30.112 
00:30	31.8	31.8	31.8	78	25.7	3	7	248	0.00	30.111 
00:35	31.8	27.8	31.8	78	25.7	4	12	270	0.00	30.112 
00:40	31.8	31.8	31.8	78	25.7	3	7	270	0.00	30.115 
00:45	31.8	31.8	31.8	79	26.0	2	4	248	0.00	30.113 
00:50	31.8	31.8	31.8	79	26.0	3	9	248	0.00	30.107 
00:55	31.8	27.8	31.8	78	25.7	4	11	270	0.00	30.110 
01:00	31.8	31.8	31.8	78	25.7	3	7	270	0.00	30.111 
01:05	31.8	27.8	31.8	78	25.7	4	9	248	0.00	30.109 
01:10	31.8	31.8	31.8	78	25.7	3	7	270	0.00	30.109 
01:15	31.8	27.8	31.8	78	25.7	4	9	248	0.00	30.106 
01:20	31.8	27.8	31.8	78	25.7	4	10	270	0.00	30.106 
01:25	31.8	31.8	31.8	78	25.7	3	7	270	0.00	30.107 
01:30	31.8	27.8	31.8	78	25.7	4	10	248	0.00	30.109 
01:35	31.8	27.8	31.8	78	25.7	4	8	248	0.00	30.110 
01:40	31.8	27.8	31.8	78	25.7	4	13	248	0.00	30.111 
01:45	31.8	31.8	31.8	78	25.7	3	13	270	0.00	30.111 
01:50	31.8	31.8	31.8	79	26.0	3	11	270	0.00	30.117 
01:55	31.8	31.8	31.8	79	26.0	3	6	248	0.00	30.116 
02:00	31.8	27.8	31.8	78	25.7	4	12	248	0.00	30.114 
02:05	31.8	27.8	31.8	79	26.0	4	14	248	0.00	30.114 
02:10	31.8	26.8	31.8	78	25.7	5	12	270	0.00	30.119 
02:15	31.8	27.8	31.8	78	25.7	4	12	248	0.00	30.119 
02:20	31.8	27.8	31.8	79	26.0	4	7	270	0.00	30.119 
02:25	31.8	27.8	31.8	79	26.0	4	12	270	0.00	30.121 
02:30	31.8	27.8	31.8	79	26.0	4	12	248	0.00	30.121 
02:35	31.8	26.0	31.8	78	25.7	6	14	270	0.00	30.122 
02:40	31.9	28.0	31.9	78	25.8	4	10	270	0.00	30.125 
02:45	31.9	31.9	31.9	78	25.8	3	7	248	0.00	30.129 
02:50	31.8	27.8	31.8	78	25.7	4	11	270	0.00	30.130 
02:55	31.8	31.8	31.8	78	25.7	3	9	248	0.00	30.131 
03:00	31.8	27.8	31.8	78	25.7	4	10	270	0.00	30.133 
03:05	31.8	27.8	31.8	78	25.7	4	16	270	0.00	30.132 
03:10	31.8	27.8	31.8	78	25.7	4	12	270	0.00	30.135 
03:15	31.8	31.8	31.8	78	25.7	3	10	248	0.00	30.136 
03:20	31.6	31.6	31.6	79	25.8	3	9	248	0.00	30.136 
03:25	31.6	26.6	31.6	78	25.5	5	12	270	0.00	30.137 
03:30	31.8	31.8	31.8	78	25.7	3	12	270	0.00	30.138 
03:35	31.6	31.6	31.6	78	25.5	3	7	270	0.00	30.137 
03:40	31.8	27.8	31.8	78	25.7	4	11	270	0.00	30.137 
03:45	31.8	27.8	31.8	78	25.7	4	11	270	0.00	30.137 
03:50	31.6	31.6	31.6	78	25.5	3	7	270	0.00	30.137 
03:55	31.6	31.6	31.6	78	25.5	2	9	270	0.00	30.138 
04:00	31.6	31.6	31.6	78	25.5	3	10	248	0.00	30.138 
04:05	31.6	31.6	31.6	78	25.5	3	13	270	0.00	30.142 
04:10	31.5	31.5	31.5	78	25.4	3	9	270	0.00	30.140 
04:15	31.5	31.5	31.5	78	25.4	3	8	270	0.00	30.138 
04:20	31.5	31.5	31.5	78	25.4	3	7	270	0.00	30.137 
04:25	31.5	31.5	31.5	78	25.4	3	13	270	0.00	30.137 
04:30	31.5	31.5	31.5	78	25.4	3	10	270	0.00	30.138 
04:35	31.5	31.5	31.5	78	25.4	2	5	270	0.00	30.143 
04:40	31.3	31.3	31.3	78	25.3	2	9	270	0.00	30.144 
04:45	31.3	26.3	31.3	78	25.3	5	13	270	0.00	30.145 
04:50	31.3	31.3	31.3	78	25.3	3	7	270	0.00	30.149 
04:55	31.3	31.3	31.3	77	24.9	3	7	270	0.00	30.152 
05:00	31.3	31.3	31.3	77	24.9	3	7	270	0.00	30.154 
05:05	31.3	31.3	31.3	77	24.9	2	4	270	0.00	30.155 
05:10	31.3	31.3	31.3	77	24.9	2	5	270	0.00	30.156 
05:15	31.3	31.3	31.3	77	24.9	2	5	270	0.00	30.158 
05:20	31.3	31.3	31.3	77	24.9	1	6	270	0.00	30.162 
05:25	31.3	31.3	31.3	77	24.9	2	4	270	0.00	30.161 
05:30	31.2	31.2	31.2	77	24.8	2	6	248	0.00	30.164 
05:35	31.2	31.2	31.2	77	24.8	2	4	270	0.00	30.165 
05:40	31.2	31.2	31.2	76	24.5	2	4	270	0.00	30.168 
05:45	31.2	31.2	31.2	76	24.5	2	4	292	0.00	30.170 
05:50	31.0	31.0	31.0	76	24.3	2	5	270	0.00	30.171 
05:55	31.0	31.0	31.0	76	24.3	1	4	270	0.00	30.174 
06:00	31.0	31.0	31.0	76	24.3	2	5	270	0.00	30.173 
06:05	31.0	31.0	31.0	74	23.7	2	4	292	0.00	30.174 
06:10	30.9	30.9	30.9	74	23.6	1	5	270	0.00	30.179 
06:15	30.9	30.9	30.9	74	23.6	3	7	270	0.00	30.179 
06:20	30.7	30.7	30.7	73	23.1	2	7	270	0.00	30.182 
06:25	30.7	30.7	30.7	73	23.1	1	5	248	0.00	30.187 
06:30	30.6	30.6	30.6	73	23.0	2	4	270	0.00	30.190 
06:35	30.6	30.6	30.6	73	23.0	2	6	270	0.00	30.194 
06:40	30.6	30.6	30.6	73	23.0	2	4	270	0.00	30.196 
06:45	30.6	30.6	30.6	73	23.0	2	5	270	0.00	30.202 
06:50	30.4	30.4	30.4	73	22.8	2	4	292	0.00	30.203 
06:55	30.4	30.4	30.4	73	22.8	2	4	270	0.00	30.208 
07:00	30.4	30.4	30.4	73	22.8	2	5	248	0.00	30.215 
07:05	30.4	30.4	30.4	73	22.8	2	5	270	0.00	30.215 
07:10	30.3	30.3	30.3	72	22.4	2	5	270	0.00	30.216 
07:15	30.3	30.3	30.3	72	22.4	1	4	315	0.00	30.217 
07:20	30.3	30.3	30.3	72	22.4	1	5	338	0.00	30.219 
07:25	30.1	30.1	30.1	72	22.2	2	5	338	0.00	30.221 
07:30	30.1	30.1	30.1	72	22.2	2	6	270	0.00	30.221 
07:35	30.1	30.1	30.1	72	22.2	2	4	315	0.00	30.222 
07:40	30.1	30.1	30.1	73	22.5	3	10	270	0.00	30.225 
07:45	30.1	30.1	30.1	73	22.5	2	4	270	0.00	30.230 
07:50	30.1	30.1	30.1	73	22.5	2	6	270	0.00	30.231 
07:55	30.1	30.1	30.1	73	22.5	1	4	248	0.00	30.230 
08:00	30.0	30.0	30.0	73	22.4	1	3	248	0.00	30.228 
08:05	30.0	30.0	30.0	73	22.4	2	5	248	0.00	30.230 
08:10	30.0	30.0	30.0	73	22.4	1	3	270	0.00	30.230 
08:15	30.0	30.0	30.0	73	22.4	1	3	248	0.00	30.232 
08:20	30.1	30.1	30.1	73	22.5	1	4	248	0.00	30.228 
08:25	30.1	30.1	30.1	73	22.5	1	6	248	0.00	30.233 
08:30	30.1	30.1	30.1	73	22.5	1	4	248	0.00	30.236 
08:35	30.1	30.1	30.1	73	22.5	1	5	248	0.00	30.237 
08:40	30.1	30.1	30.1	73	22.5	1	3	248	0.00	30.240 
08:45	30.1	30.1	30.1	73	22.5	1	5	248	0.00	30.247 
08:50	30.3	30.3	30.3	73	22.7	1	4	248	0.00	30.248 
08:55	30.3	30.3	30.3	73	22.7	1	6	248	0.00	30.252 
09:00	30.3	30.3	30.3	73	22.7	1	3	248	0.00	30.252 
09:05	30.3	30.3	30.3	73	22.7	0	2	248	0.00	30.255 
09:10	30.3	30.3	30.3	73	22.7	1	3	248	0.00	30.260 
09:15	30.4	30.4	30.4	73	22.8	1	4	270	0.00	30.262 
09:20	30.4	30.4	30.4	73	22.8	1	2	270	0.00	30.265 
09:25	30.4	30.4	30.4	73	22.8	1	6	248	0.00	30.266 
09:30	30.4	30.4	30.4	73	22.8	1	2	248	0.00	30.267 
09:35	30.4	30.4	30.4	73	22.8	1	3	248	0.00	30.267 
09:40	30.6	30.6	30.6	73	23.0	0	2	248	0.00	30.268 
09:45	30.6	30.6	30.6	72	22.7	1	3	270	0.00	30.269 
09:50	30.6	30.6	30.6	72	22.7	2	6	248	0.00	30.270 
09:55	30.7	30.7	30.7	72	22.8	0	2	338	0.00	30.269 
10:00	30.7	30.7	30.7	72	22.8	0	2	315	0.00	30.271 
10:05	30.9	30.9	30.9	72	23.0	1	3	270	0.00	30.271 
10:10	30.9	30.9	30.9	71	22.6	1	4	270	0.00	30.274 
10:15	30.9	30.9	30.9	70	22.3	1	5	248	0.00	30.274 
10:20	31.0	31.0	31.0	71	22.7	1	3	315	0.00	30.279 
10:25	31.0	31.0	31.0	71	22.7	1	2	315	0.00	30.282 
10:30	31.2	31.2	31.2	70	22.6	0	2	292	0.00	30.283 
10:35	31.2	31.2	31.2	69	22.2	0	1	292	0.00	30.285 
10:40	31.3	31.3	31.3	69	22.3	0	3	292	0.00	30.283 
10:45	31.3	31.3	31.3	69	22.3	1	3	270	0.00	30.286 
10:50	31.3	31.3	31.3	68	22.0	1	3	315	0.00	30.286 
10:55	31.5	31.5	31.5	68	22.2	1	5	0	0.00	30.286 
11:00	31.5	31.5	31.5	69	22.5	1	3	270	0.00	30.288 
11:05	31.6	31.6	31.6	69	22.6	1	2	270	0.00	30.288 
11:10	31.6	31.6	31.6	69	22.6	0	2	338	0.00	30.286 
11:15	31.8	31.8	31.8	69	22.8	1	3	292	0.00	30.287 
11:20	31.8	31.8	31.8	68	22.5	1	4	292	0.00	30.285 
11:25	31.9	31.9	31.9	67	22.2	1	3	338	0.00	30.285 
11:30	31.9	31.9	31.9	66	21.9	1	4	292	0.00	30.289 
11:35	31.9	31.9	31.9	66	21.9	0	2	0	0.00	30.289 
11:40	31.9	31.9	31.9	65	21.5	1	4	292	0.00	30.289 
11:45	31.9	31.9	31.9	65	21.5	1	4	292	0.00	30.286 
11:50	31.8	31.8	31.8	65	21.4	0	5	0	0.00	30.290 
11:55	31.8	31.8	31.8	64	21.0	1	4	338	0.00	30.295 
12:00	31.8	31.8	31.8	65	21.4	1	3	292	0.00	30.292 
12:05	31.8	31.8	31.8	64	21.0	1	3	292	0.00	30.292 
12:10	31.9	31.9	31.9	65	21.5	1	3	270	0.00	30.293 
12:15	32.1	32.1	32.1	65	21.7	1	3	248	0.00	30.296 
12:20	32.4	32.4	32.4	65	22.0	1	3	338	0.00	30.296 
12:25	32.5	32.5	32.5	63	21.3	2	4	248	0.00	30.297 
12:30	32.7	32.7	32.7	63	21.5	1	4	248	0.00	30.293 
12:35	32.7	32.7	32.7	64	21.9	1	4	248	0.00	30.294 
12:40	32.7	32.7	32.7	64	21.9	1	4	248	0.00	30.295 
12:45	32.7	32.7	32.7	64	21.9	0	2	270	0.00	30.290 
12:50	32.7	32.7	32.7	65	22.3	1	3	338	0.00	30.287 
12:55	32.8	32.8	32.8	64	22.0	1	4	248	0.00	30.288 
13:00	32.9	32.9	32.9	63	21.7	1	3	248	0.00	30.289 
13:05	32.8	32.8	32.8	63	21.6	1	4	248	0.00	30.286 
13:10	32.8	32.8	32.8	65	22.3	1	4	248	0.00	30.285 
13:15	32.9	32.9	32.9	64	22.1	0	1	292	0.00	30.286 
13:20	32.7	32.7	32.7	64	21.9	1	3	338	0.00	30.284 
13:25	32.7	32.7	32.7	64	21.9	1	4	270	0.00	30.286 
13:30	32.7	32.7	32.7	64	21.9	0	2	270	0.00	30.289 
13:35	32.5	32.5	32.5	65	22.1	1	4	338	0.00	30.289 
13:40	32.2	32.2	32.2	65	21.8	1	4	315	0.00	30.289 
13:45	32.1	32.1	32.1	66	22.0	1	2	292	0.00	30.291 
13:50	32.2	32.2	32.2	66	22.1	0	2	292	0.00	30.292 
13:55	32.2	32.2	32.2	65	21.8	1	3	292	0.00	30.297 
14:00	31.9	31.9	31.9	66	21.9	1	3	338	0.00	30.297 
14:05	31.9	31.9	31.9	67	22.2	0	3	22	0.00	30.297 
14:10	31.8	31.8	31.8	67	22.1	1	3	292	0.00	30.298 
14:15	31.6	31.6	31.6	67	21.9	0	2	292	0.00	30.297 
14:20	31.8	31.8	31.8	67	22.1	0	2	292	0.00	30.296 
14:25	31.8	31.8	31.8	67	22.1	1	3	45	0.00	30.296 
14:30	31.6	31.6	31.6	66	21.6	1	3	22	0.00	30.295 
14:35	31.5	31.5	31.5	66	21.5	1	3	292	0.00	30.294 
14:40	31.5	31.5	31.5	67	21.8	1	3	292	0.00	30.292 
14:45	31.5	31.5	31.5	66	21.5	0	3	270	0.00	30.296 
14:50	31.5	31.5	31.5	66	21.5	0	2	338	0.00	30.297 
14:55	31.2	31.2	31.2	66	21.2	1	3	315	0.00	30.299 
15:00	31.2	31.2	31.2	66	21.2	1	3	338	0.00	30.303 
15:05	31.0	31.0	31.0	66	21.0	0	2	338	0.00	30.310 
15:10	31.0	31.0	31.0	65	20.6	1	2	315	0.00	30.314 
15:15	30.9	30.9	30.9	66	20.9	0	2	315	0.00	30.315 
15:20	30.9	30.9	30.9	66	20.9	0	2	338	0.00	30.315 
15:25	31.0	31.0	31.0	67	21.3	0	2	292	0.00	30.313 
15:30	31.0	31.0	31.0	67	21.3	0	2	225	0.00	30.312 
15:35	31.0	31.0	31.0	67	21.3	0	1	225	0.00	30.312 
15:40	30.9	30.9	30.9	66	20.9	1	3	270	0.00	30.311 
15:45	30.7	30.7	30.7	67	21.1	0	3	0	0.00	30.314 
15:50	30.7	30.7	30.7	67	21.1	0	1	0	0.00	30.320 
15:55	30.7	30.7	30.7	67	21.1	0	1	0	0.00	30.325 
16:00	30.6	30.6	30.6	67	21.0	0	2	0	0.00	30.328 
16:05	30.6	30.6	30.6	67	21.0	0	2	0	0.00	30.329 
16:10	30.6	30.6	30.6	67	21.0	0	1	0	0.00	30.330 
16:15	30.4	30.4	30.4	67	20.8	0	1	0	0.00	30.330 
16:20	30.4	30.4	30.4	67	20.8	0	2	0	0.00	30.331 
16:25	30.4	30.4	30.4	68	21.1	0	0	---	0.00	30.332 
16:30	30.4	30.4	30.4	67	20.8	0	1	0	0.00	30.337 
16:35	30.4	30.4	30.4	68	21.1	0	1	0	0.00	30.337 
16:40	30.4	30.4	30.4	67	20.8	0	2	0	0.00	30.343 
16:45	30.4	30.4	30.4	67	20.8	0	2	0	0.00	30.346 
16:50	30.3	30.3	30.3	67	20.7	0	1	0	0.00	30.344 
16:55	30.3	30.3	30.3	68	21.0	0	1	0	0.00	30.344 
17:00	30.3	30.3	30.3	68	21.0	0	1	0	0.00	30.344 
17:05	30.1	30.1	30.1	68	20.8	0	1	0	0.00	30.345 
17:10	30.1	30.1	30.1	69	21.2	0	1	0	0.00	30.347 
17:15	30.1	30.1	30.1	68	20.8	0	1	0	0.00	30.349 
17:20	30.1	30.1	30.1	69	21.2	0	1	0	0.00	30.350 
17:25	30.1	30.1	30.1	69	21.2	0	2	22	0.00	30.347 
17:30	30.0	30.0	30.0	69	21.1	0	2	22	0.00	30.345 
17:35	30.0	30.0	30.0	68	20.7	0	2	135	0.00	30.348 
17:40	29.8	29.8	29.8	68	20.5	0	1	135	0.00	30.348 
17:45	29.8	29.8	29.8	69	20.9	0	2	135	0.00	30.349 
17:50	29.8	29.8	29.8	68	20.5	0	1	202	0.00	30.352 
17:55	29.7	29.7	29.7	67	20.1	0	1	202	0.00	30.354 
18:00	29.7	29.7	29.7	68	20.5	0	1	202	0.00	30.355 
18:05	29.7	29.7	29.7	68	20.5	0	1	202	0.00	30.355 
18:10	29.7	29.7	29.7	69	20.8	0	1	202	0.00	30.353 
18:15	29.7	29.7	29.7	68	20.5	0	1	112	0.00	30.354 
18:20	29.7	29.7	29.7	67	20.1	0	1	112	0.00	30.351 
18:25	29.5	29.5	29.5	67	19.9	0	1	112	0.00	30.351 
18:30	29.5	29.5	29.5	68	20.3	0	1	112	0.00	30.354 
18:35	29.5	29.5	29.5	68	20.3	1	3	112	0.00	30.356 
18:40	29.5	29.5	29.5	67	19.9	1	3	112	0.00	30.354 
18:45	29.5	29.5	29.5	67	19.9	1	3	112	0.00	30.353 
18:50	29.5	29.5	29.5	67	19.9	0	1	112	0.00	30.356 
18:55	29.4	29.4	29.4	67	19.8	1	4	112	0.00	30.359 
19:00	29.4	29.4	29.4	67	19.8	1	4	112	0.00	30.365 
19:05	29.4	29.4	29.4	66	19.5	0	1	90	0.00	30.366 
19:10	29.4	29.4	29.4	67	19.8	0	3	90	0.00	30.365 
19:15	29.4	29.4	29.4	68	20.2	0	2	90	0.00	30.368 
19:20	29.4	29.4	29.4	67	19.8	0	3	90	0.00	30.368 
19:25	29.4	29.4	29.4	67	19.8	0	2	68	0.00	30.368 
19:30	29.4	29.4	29.4	67	19.8	0	1	68	0.00	30.374 
19:35	29.4	29.4	29.4	67	19.8	0	1	68	0.00	30.371 
19:40	29.4	29.4	29.4	68	20.2	0	1	68	0.00	30.370 
19:45	29.4	29.4	29.4	67	19.8	0	2	68	0.00	30.370 
19:50	29.4	29.4	29.4	68	20.2	0	2	68	0.00	30.372 
19:55	29.4	29.4	29.4	68	20.2	0	2	68	0.00	30.369 
20:00	29.4	29.4	29.4	68	20.2	0	2	90	0.00	30.376 
20:05	29.4	29.4	29.4	67	19.8	1	3	45	0.00	30.381 
20:10	29.4	29.4	29.4	68	20.2	1	4	112	0.00	30.383 
20:15	29.4	29.4	29.4	67	19.8	1	3	112	0.00	30.379 
20:20	29.5	29.5	29.5	68	20.3	0	2	112	0.00	30.377 
20:25	29.4	29.4	29.4	67	19.8	0	2	112	0.00	30.380 
20:30	29.4	29.4	29.4	67	19.8	0	3	112	0.00	30.379 
20:35	29.4	29.4	29.4	68	20.2	0	2	112	0.00	30.371 
20:40	29.4	29.4	29.4	69	20.5	0	2	112	0.00	30.369 
20:45	29.4	29.4	29.4	69	20.5	0	2	112	0.00	30.367 
20:50	29.4	29.4	29.4	69	20.5	1	6	90	0.00	30.367 
20:55	29.4	29.4	29.4	67	19.8	2	5	112	0.00	30.366 
21:00	29.3	29.3	29.3	67	19.7	2	5	112	0.00	30.363 
21:05	29.3	29.3	29.3	67	19.7	2	5	112	0.00	30.356 
21:10	29.3	29.3	29.3	68	20.1	2	5	90	0.00	30.356 
21:15	29.3	29.3	29.3	68	20.1	1	5	112	0.00	30.359 
21:20	29.3	29.3	29.3	68	20.1	1	3	112	0.00	30.353 
21:25	29.3	29.3	29.3	68	20.1	2	5	90	0.00	30.349 
21:30	29.1	29.1	29.1	68	19.9	2	4	90	0.00	30.351 
21:35	29.1	29.1	29.1	69	20.2	1	2	112	0.00	30.360 
21:40	29.3	29.3	29.3	69	20.4	1	4	90	0.00	30.362 
21:45	29.3	29.3	29.3	69	20.4	0	2	90	0.00	30.364 
21:50	29.3	29.3	29.3	69	20.4	1	4	112	0.00	30.360 
21:55	29.3	29.3	29.3	70	20.8	1	3	112	0.00	30.355 
22:00	29.1	29.1	29.1	70	20.6	2	3	112	0.00	30.358 
22:05	29.1	29.1	29.1	69	20.2	1	5	90	0.00	30.356 
22:10	29.1	29.1	29.1	69	20.2	3	6	112	0.00	30.352 
22:15	29.1	29.1	29.1	69	20.2	3	7	90	0.00	30.349 
22:20	29.1	24.7	29.1	69	20.2	4	7	90	0.00	30.349 
22:25	29.0	29.0	29.0	69	20.1	2	6	112	0.00	30.349 
22:30	29.0	29.0	29.0	69	20.1	3	9	90	0.00	30.354 
22:35	29.0	29.0	29.0	69	20.1	1	5	112	0.00	30.360 
22:40	29.0	29.0	29.0	69	20.1	2	4	112	0.00	30.360 
22:45	29.0	29.0	29.0	69	20.1	2	5	90	0.00	30.361 
22:50	29.0	29.0	29.0	70	20.5	2	5	90	0.00	30.353 
22:55	29.0	29.0	29.0	70	20.5	3	7	112	0.00	30.350 
23:00	29.0	29.0	29.0	70	20.5	2	6	112	0.00	30.348 
23:05	29.0	29.0	29.0	71	20.8	2	5	90	0.00	30.343 
23:10	28.8	28.8	28.8	70	20.3	3	9	112	0.00	30.338 
23:15	28.8	28.8	28.8	71	20.6	2	7	112	0.00	30.334 
23:20	28.8	28.8	28.8	70	20.3	2	7	90	0.00	30.335 
23:25	28.8	28.8	28.8	70	20.3	3	5	112	0.00	30.341 
23:30	28.8	28.8	28.8	69	19.9	3	8	90	0.00	30.341 
23:35	28.8	28.8	28.8	69	19.9	3	6	112	0.00	30.341 
23:40	28.8	28.8	28.8	69	19.9	3	7	90	0.00	30.344 
23:45	28.8	28.8	28.8	69	19.9	3	7	90	0.00	30.341 
23:50	28.8	28.8	28.8	70	20.3	2	6	68	0.00	30.342 
23:55	28.8	28.8	28.8	69	19.9	2	5	90	0.00	30.345 

CoCoRaHS
IN-AL-39
A2 Web Hosting
Creative Commons License
GoDaddy
Look for:

loaded 2017-10-19 19:50:16 • last modified 2010-11-18 10:43:29
Privacy PolicyDisclaimer
• wx.awcolley.com is powered by PmWiki v.2002016 •
• all content (unless otherwise noted) © 2017 A W Colley